Time;durP1;ratioP1;P1;durP2;ratioP2;P2;SDS_P1;SDS_P2;PMS_P1;PMS_P2;Temp;Humidity;BMP_temperature;BMP_pressure;BME280_temperature;BME280_humidity;BME280_pressure;Samples;Min_cycle;Max_cycle;Signal;HPM_P1;HPM_P2
2023/03/16 00:00:12;;;;;;;4.90;1.23;;;3.40;99.90;;;;;;5095177;28;20467;-47
2023/03/16 00:02:41;;;;;;;8.85;2.38;;;3.50;99.90;;;;;;5094876;28;20044;-46
2023/03/16 00:05:08;;;;;;;8.30;1.88;;;3.50;99.90;;;;;;5094521;28;20118;-46
2023/03/16 00:07:34;;;;;;;5.53;1.73;;;3.50;99.90;;;;;;5094978;28;20032;-51
2023/03/16 00:10:00;;;;;;;7.03;2.28;;;3.50;99.90;;;;;;5094326;28;20499;-51
2023/03/16 00:12:26;;;;;;;5.65;1.80;;;3.50;99.90;;;;;;5094716;28;20048;-49
2023/03/16 00:14:53;;;;;;;6.55;1.95;;;3.60;99.90;;;;;;5094424;28;20097;-49
2023/03/16 00:17:19;;;;;;;8.38;1.65;;;3.60;99.90;;;;;;5093571;28;20396;-49
2023/03/16 00:19:47;;;;;;;5.30;2.00;;;3.50;99.90;;;;;;5094290;28;20048;-47
2023/03/16 00:22:14;;;;;;;8.00;1.70;;;3.60;99.90;;;;;;5094503;28;20101;-47
2023/03/16 00:24:44;;;;;;;4.80;1.88;;;3.60;99.90;;;;;;5094395;28;20119;-47
2023/03/16 00:27:14;;;;;;;4.13;1.60;;;3.50;99.90;;;;;;5094477;28;20132;-48
2023/03/16 00:29:48;;;;;;;9.48;2.28;;;3.60;99.90;;;;;;5093169;28;20054;-47
2023/03/16 00:32:18;;;;;;;10.43;2.15;;;3.60;99.90;;;;;;5094127;28;20101;-48
2023/03/16 00:34:45;;;;;;;5.10;1.83;;;3.60;99.90;;;;;;5094282;28;20050;-46
2023/03/16 00:37:12;;;;;;;5.18;2.10;;;3.60;99.90;;;;;;5094294;28;20044;-48
2023/03/16 00:39:39;;;;;;;5.75;1.52;;;3.60;99.90;;;;;;5091579;28;20039;-51
2023/03/16 00:42:05;;;;;;;5.72;1.85;;;3.60;99.90;;;;;;5086307;28;20051;-49
2023/03/16 00:44:31;;;;;;;5.28;2.33;;;3.60;99.90;;;;;;5094052;28;20047;-48
2023/03/16 00:46:56;;;;;;;3.50;1.60;;;3.60;99.90;;;;;;5093892;28;20040;-46
2023/03/16 00:49:22;;;;;;;7.38;2.15;;;3.60;99.90;;;;;;5093755;28;20131;-46
2023/03/16 00:51:48;;;;;;;5.18;1.77;;;3.60;99.90;;;;;;5093866;28;20494;-48
2023/03/16 00:54:13;;;;;;;5.95;2.00;;;3.60;99.90;;;;;;5093987;28;20572;-50
2023/03/16 00:56:41;;;;;;;5.30;1.88;;;3.60;99.90;;;;;;5092465;28;20450;-47
2023/03/16 00:59:07;;;;;;;5.15;1.67;;;3.70;99.90;;;;;;5089852;28;20111;-49
2023/03/16 01:01:33;;;;;;;5.00;1.90;;;3.60;99.90;;;;;;5073699;28;20123;-48
2023/03/16 01:04:00;;;;;;;7.97;1.92;;;3.60;99.90;;;;;;5086445;28;20047;-46
2023/03/16 01:06:26;;;;;;;5.75;1.98;;;3.60;99.90;;;;;;5093740;28;20439;-48
2023/03/16 01:08:52;;;;;;;6.65;1.90;;;3.60;99.90;;;;;;5093065;28;20043;-48
2023/03/16 01:11:21;;;;;;;5.47;1.80;;;3.60;99.90;;;;;;5083129;28;20496;-49
2023/03/16 01:13:48;;;;;;;7.10;2.17;;;3.60;99.90;;;;;;5074017;28;20624;-47
2023/03/16 01:16:17;;;;;;;5.03;2.20;;;3.50;99.90;;;;;;5073468;28;20079;-46
2023/03/16 01:18:43;;;;;;;8.35;2.17;;;3.60;99.90;;;;;;5073105;28;20039;-47
2023/03/16 01:21:12;;;;;;;7.32;2.20;;;3.60;99.90;;;;;;5070846;28;20037;-45
2023/03/16 01:23:38;;;;;;;5.10;2.03;;;3.60;99.90;;;;;;5072876;28;20045;-46
2023/03/16 01:26:04;;;;;;;6.30;2.25;;;3.60;99.90;;;;;;5072798;28;20047;-46
2023/03/16 01:28:33;;;;;;;5.30;2.10;;;3.60;99.90;;;;;;5072867;28;20119;-46
2023/03/16 01:31:08;;;;;;;7.47;2.25;;;3.60;99.90;;;;;;5072551;28;20040;-46
2023/03/16 01:33:35;;;;;;;9.75;2.33;;;3.60;99.90;;;;;;5072849;28;20036;-46
2023/03/16 01:36:08;;;;;;;9.02;2.13;;;3.60;99.90;;;;;;5072816;28;20059;-46
2023/03/16 01:38:34;;;;;;;5.45;2.33;;;3.60;99.90;;;;;;5072701;28;20032;-50
2023/03/16 01:41:00;;;;;;;5.72;2.00;;;3.60;99.90;;;;;;5072411;28;20094;-51
2023/03/16 01:43:28;;;;;;;6.15;2.22;;;3.60;99.90;;;;;;5072749;28;20134;-50
2023/03/16 01:46:04;;;;;;;6.72;1.95;;;3.60;99.90;;;;;;5071349;28;20045;-46
2023/03/16 01:48:41;;;;;;;6.95;2.10;;;3.60;99.90;;;;;;5072631;28;20037;-47
2023/03/16 01:51:16;;;;;;;5.38;2.10;;;3.60;99.90;;;;;;5091005;28;20130;-46
2023/03/16 01:53:45;;;;;;;4.22;1.83;;;3.60;99.90;;;;;;5092573;28;20556;-47
2023/03/16 01:56:15;;;;;;;6.13;2.28;;;3.60;99.90;;;;;;5092895;28;20051;-47
2023/03/16 01:58:43;;;;;;;8.40;2.42;;;3.60;99.90;;;;;;5092585;28;20040;-47
2023/03/16 02:01:10;;;;;;;5.00;2.03;;;3.70;99.90;;;;;;5092567;28;20109;-47
2023/03/16 02:03:36;;;;;;;6.47;1.98;;;3.60;99.90;;;;;;5092390;28;20046;-46
2023/03/16 02:06:19;;;;;;;5.13;2.60;;;3.60;99.90;;;;;;5092429;28;20039;-46
2023/03/16 02:08:47;;;;;;;5.78;2.40;;;3.50;99.90;;;;;;5092425;28;20040;-47
2023/03/16 02:11:17;;;;;;;8.82;3.00;;;3.60;99.90;;;;;;5092412;28;20048;-46
2023/03/16 02:13:44;;;;;;;6.30;2.38;;;3.60;99.90;;;;;;5092039;28;20060;-47
2023/03/16 02:16:11;;;;;;;5.13;2.30;;;3.60;99.90;;;;;;5092377;28;20043;-48
2023/03/16 02:18:36;;;;;;;5.93;2.50;;;3.60;99.90;;;;;;5092156;28;20036;-48
2023/03/16 02:21:19;;;;;;;5.20;2.08;;;3.60;99.90;;;;;;5092533;28;20051;-46
2023/03/16 02:23:46;;;;;;;5.78;1.83;;;3.70;99.90;;;;;;5092305;28;20395;-51
2023/03/16 02:26:43;;;;;;;5.95;2.38;;;3.60;99.90;;;;;;5092265;28;20480;-50
2023/03/16 02:29:28;;;;;;;6.53;2.35;;;3.60;99.90;;;;;;5092089;28;20047;-47
2023/03/16 02:31:55;;;;;;;8.90;3.00;;;3.60;99.90;;;;;;5091824;28;20054;-47
2023/03/16 02:34:22;;;;;;;8.23;2.40;;;3.60;99.90;;;;;;5092219;28;20484;-50
2023/03/16 02:36:51;;;;;;;6.05;2.58;;;3.70;99.90;;;;;;5092103;28;20032;-46
2023/03/16 02:39:17;;;;;;;6.15;2.63;;;3.60;99.90;;;;;;5091923;28;20044;-46
2023/03/16 02:41:43;;;;;;;7.30;3.20;;;3.60;99.90;;;;;;5092138;28;20109;-47
2023/03/16 02:44:23;;;;;;;6.97;2.80;;;3.60;99.90;;;;;;5092040;28;20040;-51
2023/03/16 02:46:50;;;;;;;5.70;2.30;;;3.60;99.90;;;;;;5090806;28;20032;-47
2023/03/16 02:49:45;;;;;;;6.47;2.72;;;3.60;99.90;;;;;;5091738;28;20111;-47
2023/03/16 02:52:12;;;;;;;8.02;3.17;;;3.60;99.90;;;;;;5091165;28;20044;-49
2023/03/16 02:54:37;;;;;;;7.43;2.55;;;3.60;99.90;;;;;;5091942;28;20036;-49
2023/03/16 02:57:03;;;;;;;6.43;2.95;;;3.70;99.90;;;;;;5091887;28;20051;-47
2023/03/16 02:59:30;;;;;;;8.57;2.92;;;3.60;99.90;;;;;;5091768;28;20345;-51
2023/03/16 03:01:56;;;;;;;10.50;2.88;;;3.70;99.90;;;;;;5091915;28;20537;-47
2023/03/16 03:04:23;;;;;;;6.97;2.95;;;3.70;99.90;;;;;;5073466;28;20147;-47
2023/03/16 03:06:50;;;;;;;9.02;3.03;;;3.60;99.90;;;;;;5091828;28;20123;-46
2023/03/16 03:09:17;;;;;;;9.95;3.17;;;3.60;99.90;;;;;;5092011;28;20107;-49
2023/03/16 03:11:44;;;;;;;8.00;2.90;;;3.60;99.90;;;;;;5091848;28;20079;-49
2023/03/16 03:14:10;;;;;;;7.10;3.00;;;3.60;99.90;;;;;;5086924;28;20059;-48
2023/03/16 03:16:36;;;;;;;9.90;3.10;;;3.70;99.90;;;;;;5071987;28;20060;-48
2023/03/16 03:19:01;;;;;;;7.68;3.08;;;3.60;99.90;;;;;;5071264;28;20045;-47
2023/03/16 03:21:28;;;;;;;8.43;3.38;;;3.70;99.90;;;;;;5071524;28;20472;-47
2023/03/16 03:23:53;;;;;;;6.88;3.10;;;3.70;99.90;;;;;;5070110;28;20111;-46
2023/03/16 03:26:20;;;;;;;8.25;3.40;;;3.60;99.90;;;;;;5071244;28;20115;-47
2023/03/16 03:28:46;;;;;;;8.57;3.97;;;3.70;99.90;;;;;;5071445;28;20483;-48
2023/03/16 03:31:16;;;;;;;8.48;3.75;;;3.70;99.90;;;;;;5071344;28;20114;-49
2023/03/16 03:33:42;;;;;;;7.45;3.20;;;3.70;99.90;;;;;;5071457;28;20041;-49
2023/03/16 03:36:10;;;;;;;9.45;3.30;;;3.70;99.90;;;;;;5071352;28;20056;-48
2023/03/16 03:38:36;;;;;;;11.85;4.38;;;3.70;99.90;;;;;;5071053;28;20515;-47
2023/03/16 03:41:02;;;;;;;8.27;3.67;;;3.70;99.90;;;;;;5069845;28;20048;-51
2023/03/16 03:43:28;;;;;;;8.27;4.00;;;3.70;99.90;;;;;;5071959;28;20040;-47
2023/03/16 03:45:56;;;;;;;10.85;4.80;;;3.70;99.90;;;;;;5074698;28;20045;-46
2023/03/16 03:48:22;;;;;;;10.88;4.95;;;3.70;99.90;;;;;;5074686;28;20052;-46
2023/03/16 03:50:48;;;;;;;12.73;6.28;;;3.80;99.90;;;;;;5093756;28;20048;-47
2023/03/16 03:53:14;;;;;;;11.50;5.80;;;3.80;99.90;;;;;;5095126;28;20112;-46
2023/03/16 03:55:40;;;;;;;10.25;5.53;;;3.80;99.90;;;;;;5094812;28;20047;-47
2023/03/16 03:58:05;;;;;;;11.63;5.30;;;3.80;99.90;;;;;;5095050;28;20036;-47
2023/03/16 04:00:31;;;;;;;11.70;5.38;;;3.80;99.90;;;;;;5094647;28;20051;-46
2023/03/16 04:02:57;;;;;;;11.73;6.20;;;3.80;99.90;;;;;;5095123;28;20040;-48
2023/03/16 04:05:26;;;;;;;10.90;5.50;;;3.80;99.90;;;;;;5094916;28;20063;-48
2023/03/16 04:07:56;;;;;;;12.23;5.32;;;3.80;99.90;;;;;;5094889;28;20425;-46
2023/03/16 04:10:23;;;;;;;11.23;4.90;;;3.80;99.90;;;;;;5094713;28;20044;-46
2023/03/16 04:12:49;;;;;;;12.85;6.38;;;3.80;99.90;;;;;;5094441;28;20074;-50
2023/03/16 04:15:15;;;;;;;13.23;5.47;;;3.80;99.90;;;;;;5094223;28;20835;-47
2023/03/16 04:17:41;;;;;;;10.80;5.40;;;3.80;99.90;;;;;;5094374;28;20054;-47
2023/03/16 04:20:14;;;;;;;11.80;5.47;;;3.80;99.90;;;;;;5094148;28;20082;-47
2023/03/16 04:22:41;;;;;;;14.45;6.18;;;3.80;99.90;;;;;;5093048;28;20127;-47
2023/03/16 04:25:09;;;;;;;11.75;5.70;;;3.80;99.90;;;;;;5094222;28;20398;-46
2023/03/16 04:27:35;;;;;;;12.00;5.30;;;3.80;99.90;;;;;;5094271;28;20044;-46
2023/03/16 04:30:12;;;;;;;10.85;5.07;;;3.80;99.90;;;;;;5094387;28;20067;-47
2023/03/16 04:32:39;;;;;;;12.07;5.72;;;3.80;99.90;;;;;;5093068;28;20102;-47
2023/03/16 04:35:05;;;;;;;9.90;5.38;;;3.90;99.90;;;;;;5094241;28;20042;-47
2023/03/16 04:37:31;;;;;;;9.20;5.15;;;3.80;99.90;;;;;;5094194;28;20541;-46
2023/03/16 04:39:57;;;;;;;10.85;5.20;;;3.80;99.90;;;;;;5092739;28;20048;-45
2023/03/16 04:42:22;;;;;;;9.77;5.00;;;3.80;99.90;;;;;;5090662;28;20058;-47
2023/03/16 04:44:48;;;;;;;10.73;5.28;;;3.90;99.90;;;;;;5094245;28;20051;-49
2023/03/16 04:47:15;;;;;;;12.68;5.22;;;3.90;99.90;;;;;;5093977;28;20449;-51
2023/03/16 04:49:41;;;;;;;9.95;4.72;;;3.80;99.90;;;;;;5092466;28;20039;-51
2023/03/16 04:52:08;;;;;;;13.48;5.78;;;3.90;99.90;;;;;;5093756;28;20036;-47
2023/03/16 04:54:34;;;;;;;11.55;4.80;;;3.80;99.90;;;;;;5088566;28;20033;-49
2023/03/16 04:57:02;;;;;;;9.57;4.38;;;3.80;99.90;;;;;;5073208;28;20054;-50
2023/03/16 04:59:28;;;;;;;9.38;4.93;;;3.90;99.90;;;;;;5072138;28;20071;-49
2023/03/16 05:01:54;;;;;;;7.78;4.25;;;3.90;99.90;;;;;;5072274;28;20476;-49
2023/03/16 05:04:22;;;;;;;11.07;5.07;;;3.90;99.90;;;;;;5073330;28;20036;-48
2023/03/16 05:06:47;;;;;;;10.27;5.25;;;3.90;99.90;;;;;;5073398;28;20074;-47
2023/03/16 05:09:13;;;;;;;10.40;4.57;;;3.90;99.90;;;;;;5073300;28;20058;-48
2023/03/16 05:11:39;;;;;;;10.70;4.68;;;3.90;99.90;;;;;;5073457;28;20040;-46
2023/03/16 05:14:05;;;;;;;7.95;4.20;;;3.90;99.90;;;;;;5073292;28;20157;-46
2023/03/16 05:16:30;;;;;;;10.70;4.97;;;3.90;99.90;;;;;;5071922;28;20473;-50
2023/03/16 05:19:00;;;;;;;9.38;4.70;;;3.80;99.90;;;;;;5055302;28;20129;-48
2023/03/16 05:21:26;;;;;;;11.85;4.60;;;3.90;99.90;;;;;;5072839;28;20070;-47
2023/03/16 05:23:52;;;;;;;8.65;4.78;;;3.90;99.90;;;;;;5071485;28;20208;-49
2023/03/16 05:26:18;;;;;;;11.25;5.47;;;3.90;99.90;;;;;;5072739;28;20055;-47
2023/03/16 05:28:44;;;;;;;9.13;4.50;;;3.90;99.90;;;;;;5072961;28;20041;-46
2023/03/16 05:31:10;;;;;;;10.65;4.70;;;3.90;99.90;;;;;;5054833;28;20059;-46
2023/03/16 05:33:37;;;;;;;10.32;4.75;;;3.90;99.90;;;;;;5082895;28;20082;-48
2023/03/16 05:36:03;;;;;;;10.05;5.10;;;3.90;99.90;;;;;;5093120;28;20117;-47
2023/03/16 05:38:30;;;;;;;10.65;4.95;;;3.90;99.90;;;;;;5092807;28;20043;-48
2023/03/16 05:41:00;;;;;;;9.20;4.63;;;3.90;99.90;;;;;;5092941;28;20123;-47
2023/03/16 05:43:28;;;;;;;8.68;4.60;;;3.90;99.90;;;;;;5091661;28;20127;-47
2023/03/16 05:45:54;;;;;;;10.38;6.00;;;3.90;99.90;;;;;;5091811;28;20040;-48
2023/03/16 05:48:20;;;;;;;9.73;4.55;;;4.00;99.90;;;;;;5091459;28;20448;-46
2023/03/16 05:50:46;;;;;;;10.82;4.88;;;3.90;99.90;;;;;;5069306;28;20056;-47
2023/03/16 05:53:14;;;;;;;10.70;5.38;;;4.00;99.90;;;;;;5092682;28;20055;-47
2023/03/16 05:55:40;;;;;;;10.13;5.10;;;4.00;99.90;;;;;;5091875;28;20047;-48
2023/03/16 05:58:06;;;;;;;15.70;5.18;;;4.00;99.90;;;;;;5089621;28;20095;-47
2023/03/16 06:00:31;;;;;;;10.75;5.38;;;4.00;99.90;;;;;;5091019;28;20089;-46
2023/03/16 06:02:57;;;;;;;11.90;5.50;;;4.00;99.90;;;;;;5091473;28;20043;-48
2023/03/16 06:05:24;;;;;;;12.00;5.25;;;4.00;99.90;;;;;;5090801;28;20117;-49
2023/03/16 06:07:50;;;;;;;8.68;4.90;;;4.00;99.90;;;;;;5090364;28;20032;-51
2023/03/16 06:10:17;;;;;;;11.20;5.10;;;4.10;99.90;;;;;;5091118;28;20055;-47
2023/03/16 06:12:43;;;;;;;10.98;4.40;;;4.00;99.90;;;;;;5091015;28;20110;-46
2023/03/16 06:15:10;;;;;;;9.88;4.93;;;4.00;99.90;;;;;;5089536;28;20490;-51
2023/03/16 06:17:37;;;;;;;10.50;5.25;;;4.00;99.90;;;;;;5090828;28;20048;-49
2023/03/16 06:20:09;;;;;;;9.05;4.80;;;4.00;99.90;;;;;;5090403;28;20052;-47
2023/03/16 06:22:35;;;;;;;9.50;4.85;;;4.00;99.90;;;;;;5081530;28;20135;-48
2023/03/16 06:25:01;;;;;;;11.65;4.65;;;4.00;99.90;;;;;;5078034;28;20037;-48
2023/03/16 06:27:27;;;;;;;10.43;4.78;;;4.00;99.90;;;;;;5072006;28;20387;-46
2023/03/16 06:29:53;;;;;;;9.15;4.88;;;4.00;99.90;;;;;;5068978;28;20120;-49
2023/03/16 06:32:18;;;;;;;11.30;5.10;;;4.00;99.90;;;;;;5070231;28;20124;-46
2023/03/16 06:34:44;;;;;;;13.77;5.43;;;4.10;99.90;;;;;;5070330;28;20040;-46
2023/03/16 06:37:10;;;;;;;10.25;4.88;;;4.00;99.90;;;;;;5070397;28;20123;-48
2023/03/16 06:39:36;;;;;;;13.90;5.50;;;4.10;99.90;;;;;;5070373;28;20492;-47
2023/03/16 06:42:03;;;;;;;9.18;4.50;;;4.10;99.90;;;;;;5070741;28;20029;-49
2023/03/16 06:44:29;;;;;;;11.88;4.57;;;4.10;99.90;;;;;;5078801;28;20044;-46
2023/03/16 06:46:55;;;;;;;9.02;5.03;;;4.20;99.90;;;;;;5079534;28;20070;-48
2023/03/16 06:49:20;;;;;;;10.93;5.45;;;4.10;99.90;;;;;;5081537;28;20155;-49
2023/03/16 06:51:46;;;;;;;10.48;4.82;;;4.20;99.90;;;;;;5077033;28;20361;-48
2023/03/16 06:54:12;;;;;;;11.40;4.97;;;4.10;99.90;;;;;;5081112;28;20033;-47
2023/03/16 06:56:38;;;;;;;12.63;5.40;;;4.10;99.90;;;;;;5080482;28;20550;-46
2023/03/16 06:59:03;;;;;;;10.77;4.47;;;4.20;99.90;;;;;;5078074;28;20029;-47
2023/03/16 07:01:29;;;;;;;10.55;5.53;;;4.20;99.90;;;;;;5077331;28;20492;-47
2023/03/16 07:03:55;;;;;;;11.05;5.10;;;4.20;99.90;;;;;;5070033;28;20037;-46
2023/03/16 07:06:20;;;;;;;12.15;5.30;;;4.30;99.90;;;;;;5070121;28;20071;-48
2023/03/16 07:08:46;;;;;;;8.65;4.68;;;4.20;99.90;;;;;;5070133;28;20041;-48
2023/03/16 07:11:13;;;;;;;12.95;6.32;;;4.30;99.90;;;;;;5068528;28;20106;-48
2023/03/16 07:13:39;;;;;;;10.07;4.30;;;4.30;99.90;;;;;;5069830;28;20083;-46
2023/03/16 07:16:06;;;;;;;11.10;5.20;;;4.30;99.90;;;;;;5068645;28;20056;-49
2023/03/16 07:18:32;;;;;;;12.13;4.93;;;4.40;99.90;;;;;;5070830;28;20095;-50
2023/03/16 07:20:58;;;;;;;11.55;4.82;;;4.40;99.90;;;;;;5074078;28;20048;-49
2023/03/16 07:23:24;;;;;;;13.10;5.43;;;4.40;99.90;;;;;;5073842;28;20040;-48
2023/03/16 07:25:51;;;;;;;11.40;5.32;;;4.40;99.90;;;;;;5073909;28;20032;-51
2023/03/16 07:28:18;;;;;;;8.93;4.78;;;4.50;99.90;;;;;;5072424;28;20048;-50
2023/03/16 07:30:46;;;;;;;9.23;4.70;;;4.50;99.90;;;;;;5073598;28;20415;-47
2023/03/16 07:33:13;;;;;;;9.25;4.05;;;4.50;99.90;;;;;;5073273;28;20040;-46
2023/03/16 07:35:39;;;;;;;8.57;4.38;;;4.50;99.90;;;;;;5073413;28;20544;-47
2023/03/16 07:38:04;;;;;;;9.85;5.20;;;4.60;99.90;;;;;;5073605;28;20052;-46
2023/03/16 07:40:30;;;;;;;9.82;5.30;;;4.60;99.90;;;;;;5073336;28;20329;-48
2023/03/16 07:42:56;;;;;;;8.75;4.90;;;4.70;99.90;;;;;;5076578;28;20065;-47
2023/03/16 07:45:21;;;;;;;10.40;4.88;;;4.60;99.90;;;;;;5093563;28;20396;-47
2023/03/16 07:47:47;;;;;;;9.40;4.88;;;4.70;99.90;;;;;;5094066;28;20399;-48
2023/03/16 07:50:15;;;;;;;9.57;4.90;;;4.80;99.90;;;;;;5092628;28;20562;-49
2023/03/16 07:52:41;;;;;;;9.40;4.72;;;4.80;99.90;;;;;;5085596;28;20052;-47
2023/03/16 07:55:07;;;;;;;10.73;4.75;;;4.80;99.90;;;;;;5072348;28;20056;-48
2023/03/16 07:57:33;;;;;;;10.63;4.75;;;4.90;99.90;;;;;;5088131;28;20042;-49
2023/03/16 07:59:59;;;;;;;11.98;4.85;;;4.90;99.90;;;;;;5093101;28;20036;-47
2023/03/16 08:02:24;;;;;;;8.77;5.00;;;5.00;99.90;;;;;;5091903;28;20043;-48
2023/03/16 08:04:50;;;;;;;10.77;4.63;;;5.10;99.90;;;;;;5093360;28;20089;-48
2023/03/16 08:07:16;;;;;;;9.70;4.60;;;5.00;99.90;;;;;;5093171;28;20563;-54
2023/03/16 08:09:42;;;;;;;10.23;4.80;;;5.10;99.90;;;;;;5091933;28;20119;-47
2023/03/16 08:12:08;;;;;;;12.15;5.63;;;5.10;99.90;;;;;;5091876;28;20119;-49
2023/03/16 08:14:35;;;;;;;10.73;4.78;;;5.00;99.90;;;;;;5093015;28;20047;-47
2023/03/16 08:17:02;;;;;;;13.02;5.38;;;5.00;99.90;;;;;;5093569;28;20092;-47
2023/03/16 08:19:28;;;;;;;10.52;5.47;;;5.00;99.90;;;;;;5093179;28;20036;-49
2023/03/16 08:21:55;;;;;;;11.18;5.38;;;4.90;99.90;;;;;;5093278;28;20076;-47
2023/03/16 08:24:20;;;;;;;9.32;5.10;;;5.00;99.90;;;;;;5093062;28;20044;-47
2023/03/16 08:26:46;;;;;;;8.75;4.65;;;5.00;99.90;;;;;;5093492;28;20542;-47
2023/03/16 08:29:12;;;;;;;10.65;4.63;;;5.00;99.90;;;;;;5092350;28;20100;-48
2023/03/16 08:31:38;;;;;;;10.63;4.80;;;5.00;99.90;;;;;;5093072;28;20398;-49
2023/03/16 08:34:05;;;;;;;8.02;4.75;;;4.80;99.90;;;;;;5092836;28;20078;-48
2023/03/16 08:36:30;;;;;;;10.15;4.65;;;5.00;99.90;;;;;;5092936;28;20036;-51
2023/03/16 08:38:56;;;;;;;9.90;4.82;;;5.00;99.90;;;;;;5091574;28;20491;-45
2023/03/16 08:41:22;;;;;;;10.23;5.10;;;5.00;99.90;;;;;;5088711;28;20089;-47
2023/03/16 08:43:48;;;;;;;10.60;4.70;;;5.00;99.90;;;;;;5080125;28;20036;-47
2023/03/16 08:46:14;;;;;;;8.75;4.65;;;5.00;99.90;;;;;;5072608;28;20081;-49
2023/03/16 08:48:41;;;;;;;9.93;4.85;;;4.80;99.90;;;;;;5072295;28;20401;-47
2023/03/16 08:51:10;;;;;;;12.02;5.05;;;5.10;99.90;;;;;;5091918;28;20123;-47
2023/03/16 08:53:36;;;;;;;10.45;5.22;;;5.00;99.90;;;;;;5091766;28;20044;-45
2023/03/16 08:56:07;;;;;;;9.88;4.80;;;5.00;99.90;;;;;;5091952;28;20047;-48
2023/03/16 08:58:34;;;;;;;13.50;5.57;;;5.10;99.90;;;;;;5091966;28;20048;-46
2023/03/16 09:01:01;;;;;;;11.57;5.47;;;5.10;99.90;;;;;;5091888;28;20047;-47
2023/03/16 09:03:27;;;;;;;12.70;4.72;;;5.00;99.90;;;;;;5092079;28;20040;-47
2023/03/16 09:05:59;;;;;;;13.05;5.25;;;5.20;99.90;;;;;;5091744;28;20047;-46
2023/03/16 09:08:24;;;;;;;9.30;4.72;;;5.00;99.90;;;;;;5091873;28;20090;-47
2023/03/16 09:11:01;;;;;;;10.68;4.97;;;5.00;99.90;;;;;;5091936;28;20051;-46
2023/03/16 09:13:27;;;;;;;9.93;4.93;;;5.10;99.90;;;;;;5091875;28;20105;-51
2023/03/16 09:15:53;;;;;;;9.55;4.97;;;5.30;99.90;;;;;;5091889;28;20062;-47
2023/03/16 09:18:20;;;;;;;11.30;5.55;;;5.30;99.90;;;;;;5091836;28;20044;-46
2023/03/16 09:20:46;;;;;;;10.25;5.22;;;5.30;99.90;;;;;;5091551;28;20126;-48
2023/03/16 09:23:12;;;;;;;11.43;5.57;;;4.90;99.90;;;;;;5080259;28;20536;-49
2023/03/16 09:25:38;;;;;;;10.13;5.63;;;4.90;99.90;;;;;;5080044;28;20036;-50
2023/03/16 09:28:05;;;;;;;9.98;4.90;;;5.10;99.90;;;;;;5080375;28;20032;-51
2023/03/16 09:30:31;;;;;;;9.77;5.43;;;5.20;99.90;;;;;;5081524;28;20067;-52
2023/03/16 09:32:58;;;;;;;11.68;5.40;;;5.00;99.90;;;;;;5080020;28;20097;-48
2023/03/16 09:35:24;;;;;;;10.50;5.15;;;5.40;99.90;;;;;;5081500;28;20079;-50
2023/03/16 09:37:51;;;;;;;11.13;5.28;;;5.00;99.90;;;;;;5089645;28;20507;-47
2023/03/16 09:40:29;;;;;;;11.40;5.20;;;5.00;99.90;;;;;;5091146;28;20557;-48
2023/03/16 09:43:19;;;;;;;10.88;5.38;;;5.30;99.90;;;;;;5091266;28;20036;-47
2023/03/16 09:46:05;;;;;;;10.43;6.00;;;5.30;99.90;;;;;;5091302;28;20040;-47
2023/03/16 09:48:34;;;;;;;10.05;5.47;;;5.30;99.90;;;;;;5091717;28;20496;-46
2023/03/16 09:51:03;;;;;;;11.60;5.40;;;5.70;99.90;;;;;;5091011;28;20104;-47
2023/03/16 09:53:33;;;;;;;10.15;5.47;;;5.80;99.90;;;;;;5089938;28;20083;-46
2023/03/16 09:56:07;;;;;;;10.88;5.85;;;5.60;99.90;;;;;;5091219;28;20075;-47
2023/03/16 09:58:33;;;;;;;10.82;5.75;;;5.30;99.90;;;;;;5091306;28;20040;-47
2023/03/16 10:01:31;;;;;;;13.00;7.32;;;5.50;99.90;;;;;;5090963;28;20085;-49
2023/03/16 10:04:14;;;;;;;14.40;5.57;;;5.50;99.90;;;;;;5091102;28;20039;-48
2023/03/16 10:07:06;;;;;;;10.82;5.43;;;5.40;99.90;;;;;;5091109;28;20467;-48
2023/03/16 10:09:37;;;;;;;;;;;5.40;99.90;;;;;;5039584;28;20504;-49
2023/03/16 10:12:06;;;;;;;12.20;6.05;;;5.90;99.90;;;;;;5070773;28;19928;-47
2023/03/16 10:14:54;;;;;;;10.45;5.47;;;5.80;99.90;;;;;;5076215;28;20059;-46
2023/03/16 10:17:32;;;;;;;11.60;5.00;;;5.70;99.90;;;;;;5090564;28;20143;-47
2023/03/16 10:20:10;;;;;;;9.57;5.45;;;6.00;99.90;;;;;;5090464;28;20563;-50
2023/03/16 10:22:43;;;;;;;11.55;5.78;;;5.50;99.90;;;;;;5090773;28;20043;-45
2023/03/16 10:25:47;;;;;;;10.88;5.25;;;5.70;99.90;;;;;;5090710;28;20214;-45
2023/03/16 10:28:27;;;;;;;13.63;6.20;;;6.00;99.90;;;;;;5091982;28;20044;-47
2023/03/16 10:30:58;;;;;;;10.73;5.00;;;5.60;99.90;;;;;;5092064;28;20036;-46
2023/03/16 10:33:27;;;;;;;10.27;5.10;;;5.50;99.90;;;;;;5092379;28;20040;-46
2023/03/16 10:36:11;;;;;;;11.32;5.45;;;5.50;99.90;;;;;;5092029;28;20098;-46
2023/03/16 10:38:45;;;;;;;13.52;5.65;;;5.50;99.90;;;;;;5092003;28;20476;-46
2023/03/16 10:41:17;;;;;;;11.52;5.38;;;5.70;99.90;;;;;;5073704;28;20087;-45
2023/03/16 10:44:13;;;;;;;11.32;5.45;;;5.50;99.90;;;;;;5092016;28;20476;-49
2023/03/16 10:46:47;;;;;;;12.00;6.00;;;5.50;99.90;;;;;;5083273;28;20040;-46
2023/03/16 10:49:27;;;;;;;10.10;5.78;;;5.50;99.90;;;;;;5091728;28;20040;-48
2023/03/16 10:51:56;;;;;;;11.80;5.47;;;5.70;99.90;;;;;;5092061;28;20036;-48
2023/03/16 10:54:39;;;;;;;11.07;5.15;;;5.50;99.90;;;;;;5096195;28;20115;-50
2023/03/16 10:57:21;;;;;;;9.95;5.40;;;5.90;99.90;;;;;;5094902;28;20047;-51
2023/03/16 11:00:09;;;;;;;11.73;5.53;;;5.70;99.90;;;;;;5096218;28;20047;-51
2023/03/16 11:02:35;;;;;;;12.90;5.60;;;5.50;99.90;;;;;;5084714;28;20519;-47
2023/03/16 11:05:16;;;;;;;10.23;4.90;;;5.70;99.90;;;;;;5094587;28;20044;-47
2023/03/16 11:08:01;;;;;;;9.80;4.68;;;6.00;99.90;;;;;;5095468;28;20040;-50
2023/03/16 11:10:35;;;;;;;11.77;5.43;;;5.70;99.90;;;;;;5095934;28;20072;-50
2023/03/16 11:13:13;;;;;;;10.15;4.53;;;6.10;99.90;;;;;;5095763;28;20040;-47
2023/03/16 11:16:00;;;;;;;11.02;5.15;;;6.20;99.90;;;;;;5094228;28;20051;-47
2023/03/16 11:18:31;;;;;;;11.45;4.82;;;6.10;99.90;;;;;;5095800;28;20043;-50
2023/03/16 11:21:07;;;;;;;11.93;4.90;;;6.00;99.90;;;;;;5094292;28;20401;-48
2023/03/16 11:23:36;;;;;;;9.93;4.78;;;6.00;99.90;;;;;;5095686;28;20040;-48
2023/03/16 11:26:10;;;;;;;9.77;4.47;;;6.60;99.90;;;;;;5095614;28;20032;-50
2023/03/16 11:28:40;;;;;;;10.45;4.55;;;6.40;99.90;;;;;;5095267;28;20036;-48
2023/03/16 11:31:21;;;;;;;8.13;4.70;;;6.60;99.90;;;;;;5095717;28;20096;-48
2023/03/16 11:33:48;;;;;;;12.75;5.32;;;6.60;99.90;;;;;;5095646;28;20032;-47
2023/03/16 11:36:31;;;;;;;8.38;4.25;;;6.50;99.90;;;;;;5095314;28;20115;-47
2023/03/16 11:39:30;;;;;;;10.07;4.13;;;6.90;99.90;;;;;;5093839;28;20097;-46
2023/03/16 11:42:06;;;;;;;9.30;4.78;;;6.80;99.90;;;;;;5094975;28;20138;-47
2023/03/16 11:44:43;;;;;;;8.05;4.50;;;6.80;99.90;;;;;;5094130;28;20120;-46
2023/03/16 11:47:27;;;;;;;7.68;3.95;;;6.70;99.90;;;;;;5094846;28;20032;-46
2023/03/16 11:50:12;;;;;;;8.25;3.72;;;6.60;99.90;;;;;;5094957;28;20040;-47
2023/03/16 11:52:54;;;;;;;9.27;3.97;;;6.70;99.90;;;;;;5095280;28;20032;-47
2023/03/16 11:55:26;;;;;;;8.38;3.90;;;6.80;99.90;;;;;;5094826;28;20341;-47
2023/03/16 11:58:13;;;;;;;8.32;4.40;;;6.90;99.90;;;;;;5094985;28;20384;-46
2023/03/16 12:00:45;;;;;;;7.28;4.00;;;7.00;99.90;;;;;;5093372;28;20376;-46
2023/03/16 12:03:29;;;;;;;8.18;4.15;;;7.20;99.90;;;;;;5082071;28;20041;-47
2023/03/16 12:06:22;;;;;;;9.60;4.10;;;7.30;99.90;;;;;;5080332;28;20029;-46
2023/03/16 12:09:06;;;;;;;;;;;7.20;99.90;;;;;;5074699;28;20098;-46
2023/03/16 12:11:58;;;;;;;11.13;3.80;;;7.50;99.90;;;;;;5083463;28;20318;-46
2023/03/16 12:14:35;;;;;;;11.55;3.72;;;7.50;99.90;;;;;;5081890;28;20149;-47
2023/03/16 12:17:14;;;;;;;9.88;3.75;;;7.60;99.90;;;;;;5084376;28;20366;-46
2023/03/16 12:19:57;;;;;;;8.35;3.88;;;7.90;99.90;;;;;;5081197;28;20133;-48
2023/03/16 12:22:28;;;;;;;10.27;3.65;;;8.00;99.90;;;;;;5084212;28;20044;-47
2023/03/16 12:24:54;;;;;;;9.15;3.78;;;8.10;99.90;;;;;;5083216;28;20025;-49
2023/03/16 12:27:32;;;;;;;10.38;3.47;;;7.90;99.90;;;;;;5084026;28;20058;-50
2023/03/16 12:30:03;;;;;;;7.60;3.53;;;8.00;99.90;;;;;;5083357;28;20059;-47
2023/03/16 12:33:09;;;;;;;8.15;3.80;;;8.10;99.90;;;;;;5094282;28;20056;-47
2023/03/16 12:35:55;;;;;;;8.52;4.15;;;8.00;99.90;;;;;;5073471;28;20062;-52
2023/03/16 12:38:38;;;;;;;7.50;4.07;;;8.20;99.90;;;;;;5093760;28;20036;-49
2023/03/16 12:41:13;;;;;;;9.00;3.80;;;8.20;99.90;;;;;;5094537;28;20092;-46
2023/03/16 12:43:45;;;;;;;8.82;4.05;;;8.20;99.90;;;;;;5088303;28;20123;-49
2023/03/16 12:46:27;;;;;;;8.57;4.30;;;8.20;99.90;;;;;;5084688;28;20070;-50
2023/03/16 12:48:57;;;;;;;10.35;4.30;;;8.20;99.90;;;;;;5085015;28;20032;-48
2023/03/16 12:51:33;;;;;;;8.98;4.05;;;8.30;99.90;;;;;;5083904;28;20047;-48
2023/03/16 12:53:59;;;;;;;8.90;3.83;;;8.30;99.90;;;;;;5081975;28;20054;-49
2023/03/16 12:56:32;;;;;;;9.45;4.10;;;8.40;99.90;;;;;;5082799;28;20059;-47
2023/03/16 12:59:00;;;;;;;7.35;3.67;;;8.40;99.90;;;;;;5083018;28;20560;-46
2023/03/16 13:01:36;;;;;;;6.55;3.40;;;8.30;99.90;;;;;;5082391;28;20140;-47
2023/03/16 13:04:13;;;;;;;11.15;3.83;;;8.30;99.90;;;;;;5080295;28;20044;-47
2023/03/16 13:06:44;;;;;;;8.35;3.97;;;8.20;99.90;;;;;;5073357;28;20036;-49